Time;durP1;ratioP1;P1;durP2;ratioP2;P2;SDS_P1;SDS_P2;PMS_P1;PMS_P2;Temp;Humidity;BMP_temperature;BMP_pressure;BME280_temperature;BME280_humidity;BME280_pressure;Samples;Min_cycle;Max_cycle;Signal;HPM_P1;HPM_P2
2022/02/16 00:00:10;;;;;;;1.85;0.60;;;;;;;;;;5035871;28;20040;-68
2022/02/16 00:02:38;;;;;;;2.28;0.60;;;;;;;;;;5036190;28;20053;-68
2022/02/16 00:05:04;;;;;;;2.85;1.10;;;;;;;;;;5025341;28;20549;-68
2022/02/16 00:07:30;;;;;;;2.35;0.60;;;;;;;;;;5044004;28;20539;-68
2022/02/16 00:09:55;;;;;;;2.45;0.60;;;;;;;;;;5046692;28;20021;-68
2022/02/16 00:12:20;;;;;;;3.25;0.43;;;;;;;;;;5035098;28;20540;-68
2022/02/16 00:14:45;;;;;;;2.03;0.52;;;;;;;;;;5019774;28;20397;-68
2022/02/16 00:17:10;;;;;;;2.38;0.50;;;;;;;;;;5036495;28;20409;-68
2022/02/16 00:19:36;;;;;;;3.08;0.60;;;;;;;;;;5037365;28;20022;-68
2022/02/16 00:22:01;;;;;;;1.63;0.40;;;;;;;;;;5027186;28;20029;-68
2022/02/16 00:24:26;;;;;;;2.08;0.50;;;;;;;;;;5033909;28;20057;-68
2022/02/16 00:26:51;;;;;;;2.08;0.50;;;;;;;;;;5046929;28;20489;-67
2022/02/16 00:29:17;;;;;;;1.15;0.40;;;;;;;;;;5049174;28;20025;-68
2022/02/16 00:31:42;;;;;;;3.90;0.60;;;;;;;;;;5041859;28;20022;-67
2022/02/16 00:34:07;;;;;;;1.80;0.50;;;;;;;;;;5040031;28;20071;-68
2022/02/16 00:36:32;;;;;;;1.98;0.40;;;;;;;;;;5044659;28;20080;-68
2022/02/16 00:38:58;;;;;;;5.05;0.50;;;;;;;;;;5048031;28;20021;-67
2022/02/16 00:41:23;;;;;;;2.30;0.30;;;;;;;;;;5029296;28;20018;-68
2022/02/16 00:43:48;;;;;;;0.70;0.38;;;;;;;;;;5027520;28;20076;-68
2022/02/16 00:46:14;;;;;;;1.40;0.40;;;;;;;;;;5039580;28;20470;-68
2022/02/16 00:48:39;;;;;;;1.63;0.52;;;;;;;;;;5032581;28;20040;-67
2022/02/16 00:51:05;;;;;;;1.45;0.40;;;;;;;;;;5028380;28;20112;-67
2022/02/16 00:53:30;;;;;;;1.33;0.30;;;;;;;;;;5017045;28;20120;-67
2022/02/16 00:55:55;;;;;;;2.28;0.40;;;;;;;;;;5034002;28;20084;-66
2022/02/16 00:58:20;;;;;;;1.35;0.40;;;;;;;;;;5033956;28;20036;-68
2022/02/16 01:00:45;;;;;;;1.55;0.40;;;;;;;;;;5028731;28;20034;-67
2022/02/16 01:03:11;;;;;;;1.60;0.55;;;;;;;;;;5043359;28;20029;-67
2022/02/16 01:05:36;;;;;;;1.25;0.30;;;;;;;;;;5043815;28;20040;-67
2022/02/16 01:08:01;;;;;;;1.35;0.30;;;;;;;;;;5058784;28;20029;-66
2022/02/16 01:10:26;;;;;;;1.88;0.32;;;;;;;;;;5027186;28;20073;-67
2022/02/16 01:12:51;;;;;;;1.58;0.40;;;;;;;;;;5030161;28;20479;-68
2022/02/16 01:15:17;;;;;;;2.05;0.40;;;;;;;;;;5026513;28;20044;-68
2022/02/16 01:17:42;;;;;;;2.50;0.52;;;;;;;;;;5046989;28;20027;-68
2022/02/16 01:20:08;;;;;;;0.68;0.30;;;;;;;;;;5035095;28;20092;-67
2022/02/16 01:22:33;;;;;;;1.20;0.30;;;;;;;;;;5021005;28;20018;-67
2022/02/16 01:24:58;;;;;;;1.88;0.20;;;;;;;;;;5020955;28;20021;-68
2022/02/16 01:27:24;;;;;;;1.92;0.80;;;;;;;;;;5036233;28;20025;-68
2022/02/16 01:29:49;;;;;;;1.55;0.20;;;;;;;;;;5048824;28;20061;-67
2022/02/16 01:32:14;;;;;;;2.22;0.40;;;;;;;;;;5032701;28;20029;-67
2022/02/16 01:34:39;;;;;;;0.85;0.30;;;;;;;;;;5034679;28;20397;-68
2022/02/16 01:37:04;;;;;;;1.65;0.45;;;;;;;;;;5039411;28;20072;-66
2022/02/16 01:39:30;;;;;;;2.47;0.35;;;;;;;;;;5034044;28;20021;-67
2022/02/16 01:41:55;;;;;;;1.42;0.47;;;;;;;;;;5033597;28;20026;-67
2022/02/16 01:44:24;;;;;;;2.72;0.40;;;;;;;;;;5033341;28;20359;-67
2022/02/16 01:46:50;;;;;;;2.47;0.55;;;;;;;;;;5025484;28;20490;-67
2022/02/16 01:49:15;;;;;;;3.45;0.50;;;;;;;;;;5033809;28;20101;-67
2022/02/16 01:51:40;;;;;;;1.83;0.60;;;;;;;;;;5034350;28;20083;-66
2022/02/16 01:54:05;;;;;;;2.38;0.68;;;;;;;;;;5039941;28;20049;-66
2022/02/16 01:56:32;;;;;;;3.28;0.70;;;;;;;;;;5030354;28;20534;-68
2022/02/16 01:58:57;;;;;;;1.27;0.32;;;;;;;;;;5049044;28;20556;-67
2022/02/16 02:01:23;;;;;;;7.25;1.48;;;;;;;;;;5051396;28;20025;-68
2022/02/16 02:03:49;;;;;;;1.95;0.73;;;;;;;;;;5033785;28;20088;-68
2022/02/16 02:06:14;;;;;;;1.23;0.73;;;;;;;;;;5034436;28;20136;-67
2022/02/16 02:08:39;;;;;;;1.75;1.10;;;;;;;;;;5034409;28;20288;-68
2022/02/16 02:11:04;;;;;;;1.73;0.65;;;;;;;;;;5017029;28;20084;-67
2022/02/16 02:13:29;;;;;;;1.50;0.60;;;;;;;;;;5040280;28;20745;-68
2022/02/16 02:15:55;;;;;;;3.08;0.60;;;;;;;;;;5027794;28;20034;-68
2022/02/16 02:18:21;;;;;;;2.20;0.77;;;;;;;;;;5042274;28;20539;-67
2022/02/16 02:20:46;;;;;;;2.20;1.00;;;;;;;;;;5030372;28;20041;-68
2022/02/16 02:23:11;;;;;;;2.33;0.73;;;;;;;;;;5027361;28;20029;-68
2022/02/16 02:25:48;;;;;;;1.58;0.63;;;;;;;;;;5018427;28;20034;-68
2022/02/16 02:28:14;;;;;;;1.45;0.70;;;;;;;;;;5028182;28;20045;-67
2022/02/16 02:30:39;;;;;;;1.77;0.93;;;;;;;;;;5028617;28;20030;-67
2022/02/16 02:33:04;;;;;;;1.98;0.88;;;;;;;;;;5039824;28;20032;-67
2022/02/16 02:35:30;;;;;;;1.88;0.68;;;;;;;;;;5030778;28;20032;-67
2022/02/16 02:37:55;;;;;;;1.33;0.50;;;;;;;;;;5033829;28;20041;-67
2022/02/16 02:40:20;;;;;;;3.50;0.50;;;;;;;;;;5033756;28;20414;-67
2022/02/16 02:42:46;;;;;;;2.42;0.65;;;;;;;;;;5046245;28;20032;-67
2022/02/16 02:45:13;;;;;;;1.80;0.70;;;;;;;;;;5048491;28;20029;-67
2022/02/16 02:47:38;;;;;;;1.15;0.30;;;;;;;;;;5031729;28;20025;-67
2022/02/16 02:50:05;;;;;;;1.35;0.60;;;;;;;;;;5017631;28;20028;-67
2022/02/16 02:52:31;;;;;;;1.48;0.45;;;;;;;;;;5021082;28;20037;-67
2022/02/16 02:54:57;;;;;;;1.75;0.60;;;;;;;;;;5030931;28;20053;-67
2022/02/16 02:57:22;;;;;;;1.80;0.30;;;;;;;;;;5032403;28;20039;-67
2022/02/16 02:59:47;;;;;;;0.90;0.40;;;;;;;;;;5046393;28;20028;-66
2022/02/16 03:02:12;;;;;;;1.17;0.47;;;;;;;;;;5038003;28;20473;-67
2022/02/16 03:04:37;;;;;;;1.38;0.30;;;;;;;;;;5049567;28;20469;-67
2022/02/16 03:07:03;;;;;;;0.63;0.22;;;;;;;;;;5032269;28;20551;-67
2022/02/16 03:09:28;;;;;;;2.15;0.30;;;;;;;;;;5027497;28;20029;-67
2022/02/16 03:11:53;;;;;;;0.73;0.30;;;;;;;;;;5040718;28;20049;-67
2022/02/16 03:14:18;;;;;;;1.75;0.20;;;;;;;;;;5047003;28;20764;-67
2022/02/16 03:16:43;;;;;;;1.33;0.20;;;;;;;;;;5051575;28;20615;-67
2022/02/16 03:19:08;;;;;;;1.95;0.20;;;;;;;;;;5031503;28;20155;-67
2022/02/16 03:21:34;;;;;;;0.82;0.30;;;;;;;;;;5028661;28;20093;-67
2022/02/16 03:23:59;;;;;;;1.05;0.20;;;;;;;;;;5029479;28;20033;-67
2022/02/16 03:26:24;;;;;;;0.90;0.22;;;;;;;;;;5041389;28;20434;-67
2022/02/16 03:28:49;;;;;;;1.55;0.30;;;;;;;;;;5031693;28;20049;-67
2022/02/16 03:31:14;;;;;;;1.50;0.30;;;;;;;;;;5028905;28;20045;-67
2022/02/16 03:33:40;;;;;;;1.05;0.20;;;;;;;;;;5032794;28;20018;-67
2022/02/16 03:36:05;;;;;;;0.57;0.20;;;;;;;;;;5038062;28;20040;-67
2022/02/16 03:38:30;;;;;;;1.25;0.20;;;;;;;;;;5047927;28;20033;-66
2022/02/16 03:40:56;;;;;;;1.85;0.20;;;;;;;;;;5036132;28;20030;-67
2022/02/16 03:43:21;;;;;;;0.32;0.20;;;;;;;;;;5038747;28;20017;-67
2022/02/16 03:45:46;;;;;;;1.88;0.47;;;;;;;;;;5030441;28;20025;-67
2022/02/16 03:48:12;;;;;;;1.95;0.20;;;;;;;;;;5017909;28;20028;-67
2022/02/16 03:50:37;;;;;;;0.60;0.20;;;;;;;;;;5036182;28;20029;-67
2022/02/16 03:53:02;;;;;;;1.67;0.20;;;;;;;;;;5026746;28;20537;-67
2022/02/16 03:55:28;;;;;;;0.40;0.15;;;;;;;;;;5026299;28;20061;-67
2022/02/16 03:57:53;;;;;;;2.28;0.20;;;;;;;;;;5025855;28;20454;-67
2022/02/16 04:00:18;;;;;;;0.85;0.20;;;;;;;;;;5029150;28;20025;-67
2022/02/16 04:02:43;;;;;;;0.40;0.35;;;;;;;;;;5045442;28;20024;-67
2022/02/16 04:05:09;;;;;;;0.25;0.15;;;;;;;;;;5032577;28;20029;-67
2022/02/16 04:07:34;;;;;;;1.35;0.25;;;;;;;;;;5032417;28;20025;-67
2022/02/16 04:10:00;;;;;;;1.55;0.20;;;;;;;;;;5023802;28;20029;-67
2022/02/16 04:12:25;;;;;;;1.90;0.20;;;;;;;;;;5033005;28;20156;-67
2022/02/16 04:14:50;;;;;;;0.25;0.10;;;;;;;;;;5024818;28;20163;-67
2022/02/16 04:17:16;;;;;;;2.78;0.20;;;;;;;;;;5045244;28;20108;-67
2022/02/16 04:19:41;;;;;;;0.20;0.10;;;;;;;;;;5050244;28;20039;-67
2022/02/16 04:22:07;;;;;;;0.98;0.20;;;;;;;;;;5022677;28;20107;-67
2022/02/16 04:24:32;;;;;;;1.50;0.10;;;;;;;;;;5018683;28;20041;-67
2022/02/16 04:26:57;;;;;;;0.50;0.10;;;;;;;;;;5037677;28;20390;-67
2022/02/16 04:29:22;;;;;;;1.45;0.20;;;;;;;;;;5031684;28;20026;-66
2022/02/16 04:31:48;;;;;;;1.63;0.20;;;;;;;;;;5029968;28;20033;-66
2022/02/16 04:34:13;;;;;;;1.38;0.40;;;;;;;;;;5032920;28;20036;-67
2022/02/16 04:36:38;;;;;;;1.45;0.20;;;;;;;;;;5034793;28;20670;-67
2022/02/16 04:39:03;;;;;;;1.10;0.20;;;;;;;;;;5044883;28;20018;-67
2022/02/16 04:41:29;;;;;;;1.23;0.15;;;;;;;;;;5020207;28;20034;-67
2022/02/16 04:43:54;;;;;;;0.88;0.10;;;;;;;;;;5035631;28;20025;-67
2022/02/16 04:46:19;;;;;;;0.50;0.40;;;;;;;;;;5036430;28;20478;-67
2022/02/16 04:48:45;;;;;;;1.25;0.10;;;;;;;;;;5051842;28;20170;-67
2022/02/16 04:51:11;;;;;;;1.58;0.20;;;;;;;;;;5044545;28;20469;-66
2022/02/16 04:53:36;;;;;;;0.38;0.15;;;;;;;;;;5016057;28;20018;-66
2022/02/16 04:56:02;;;;;;;0.38;0.13;;;;;;;;;;5021363;28;20053;-66
2022/02/16 04:58:28;;;;;;;0.30;0.17;;;;;;;;;;5034079;28;20028;-66
2022/02/16 05:00:53;;;;;;;0.70;0.30;;;;;;;;;;5034176;28;20017;-66
2022/02/16 05:03:18;;;;;;;1.08;0.17;;;;;;;;;;5039832;28;20025;-68
2022/02/16 05:05:43;;;;;;;0.63;0.15;;;;;;;;;;5035806;28;20033;-67
2022/02/16 05:08:09;;;;;;;0.47;0.20;;;;;;;;;;5051048;28;20075;-67
2022/02/16 05:10:34;;;;;;;0.75;0.20;;;;;;;;;;5024831;28;20026;-67
2022/02/16 05:12:59;;;;;;;0.68;0.20;;;;;;;;;;5034868;28;20030;-67
2022/02/16 05:15:24;;;;;;;1.45;0.25;;;;;;;;;;5033941;28;20996;-67
2022/02/16 05:17:50;;;;;;;1.17;0.50;;;;;;;;;;5022163;28;20055;-67
2022/02/16 05:20:15;;;;;;;2.25;0.20;;;;;;;;;;5046959;28;20099;-67
2022/02/16 05:22:40;;;;;;;0.90;0.20;;;;;;;;;;5017504;28;20038;-66
2022/02/16 05:25:06;;;;;;;0.80;0.13;;;;;;;;;;5022441;28;20058;-67
2022/02/16 05:27:31;;;;;;;1.27;0.20;;;;;;;;;;5021475;28;20409;-67
2022/02/16 05:29:56;;;;;;;0.80;0.20;;;;;;;;;;5036965;28;20104;-67
2022/02/16 05:32:21;;;;;;;1.75;0.20;;;;;;;;;;5030811;28;20478;-67
2022/02/16 05:34:46;;;;;;;0.63;0.20;;;;;;;;;;5034176;28;20485;-67
2022/02/16 05:37:11;;;;;;;0.93;0.17;;;;;;;;;;5035472;28;20009;-67
2022/02/16 05:39:37;;;;;;;1.15;0.30;;;;;;;;;;5029751;28;20469;-67
2022/02/16 05:42:03;;;;;;;0.20;0.10;;;;;;;;;;5047935;28;20461;-67
2022/02/16 05:44:29;;;;;;;1.08;0.17;;;;;;;;;;5034078;28;21278;-68
2022/02/16 05:46:54;;;;;;;0.85;0.20;;;;;;;;;;5038323;28;20025;-67
2022/02/16 05:49:19;;;;;;;0.73;0.10;;;;;;;;;;5043572;28;20033;-67
2022/02/16 05:51:44;;;;;;;1.08;0.28;;;;;;;;;;5026449;28;20022;-67
2022/02/16 05:54:11;;;;;;;0.68;0.22;;;;;;;;;;5028827;28;20042;-68
2022/02/16 05:56:36;;;;;;;2.35;0.30;;;;;;;;;;5030789;28;20047;-68
2022/02/16 05:59:01;;;;;;;1.00;0.20;;;;;;;;;;5032885;28;20026;-68
2022/02/16 06:01:26;;;;;;;1.58;0.22;;;;;;;;;;5034931;28;20025;-67
2022/02/16 06:03:51;;;;;;;1.75;0.10;;;;;;;;;;5041405;28;20033;-67
2022/02/16 06:06:18;;;;;;;0.40;0.13;;;;;;;;;;5036874;28;20290;-67
2022/02/16 06:08:43;;;;;;;0.68;0.10;;;;;;;;;;5051450;28;20036;-67
2022/02/16 06:11:10;;;;;;;0.75;0.20;;;;;;;;;;5029572;28;20029;-67
2022/02/16 06:13:35;;;;;;;1.17;0.10;;;;;;;;;;5033093;28;20474;-67
2022/02/16 06:16:00;;;;;;;0.45;0.10;;;;;;;;;;5042934;28;20087;-68
2022/02/16 06:18:26;;;;;;;0.63;0.20;;;;;;;;;;5033092;28;20040;-67
2022/02/16 06:20:51;;;;;;;0.47;0.10;;;;;;;;;;5039908;28;20029;-68
2022/02/16 06:23:16;;;;;;;1.00;0.10;;;;;;;;;;5015535;28;20109;-68
2022/02/16 06:25:42;;;;;;;0.85;0.10;;;;;;;;;;5027187;28;20029;-67
2022/02/16 06:28:07;;;;;;;0.95;0.20;;;;;;;;;;5034360;28;20048;-67
2022/02/16 06:30:32;;;;;;;0.25;0.10;;;;;;;;;;5034791;28;20407;-68
2022/02/16 06:32:57;;;;;;;0.30;0.10;;;;;;;;;;5029353;28;20087;-68
2022/02/16 06:35:22;;;;;;;0.63;0.10;;;;;;;;;;5052480;28;20025;-68
2022/02/16 06:37:47;;;;;;;0.88;0.10;;;;;;;;;;5037870;28;20543;-68
2022/02/16 06:40:13;;;;;;;0.30;0.10;;;;;;;;;;5021064;28;20403;-68
2022/02/16 06:42:39;;;;;;;0.25;0.15;;;;;;;;;;5038279;28;20025;-68
2022/02/16 06:45:04;;;;;;;0.30;0.10;;;;;;;;;;5030715;28;20088;-68
2022/02/16 06:47:30;;;;;;;0.32;0.08;;;;;;;;;;5028558;28;20078;-68
2022/02/16 06:49:55;;;;;;;0.30;0.10;;;;;;;;;;5027178;28;20480;-67
2022/02/16 06:52:20;;;;;;;1.00;0.20;;;;;;;;;;5020727;28;20382;-68
2022/02/16 06:54:45;;;;;;;0.77;0.20;;;;;;;;;;5025473;28;20044;-68
2022/02/16 06:57:10;;;;;;;0.55;0.20;;;;;;;;;;5036577;28;20441;-67
2022/02/16 06:59:36;;;;;;;0.65;0.20;;;;;;;;;;5047091;28;20021;-67
2022/02/16 07:02:01;;;;;;;0.20;0.10;;;;;;;;;;5041408;28;20036;-67
2022/02/16 07:04:27;;;;;;;0.60;0.25;;;;;;;;;;5036715;28;20025;-67
2022/02/16 07:06:52;;;;;;;0.30;0.10;;;;;;;;;;5030398;28;20080;-67
2022/02/16 07:09:17;;;;;;;0.85;0.10;;;;;;;;;;5027956;28;20030;-67
2022/02/16 07:11:43;;;;;;;0.22;0.10;;;;;;;;;;5016311;28;20492;-67
2022/02/16 07:14:08;;;;;;;2.25;0.45;;;;;;;;;;5027897;28;20026;-66
2022/02/16 07:16:33;;;;;;;1.27;0.10;;;;;;;;;;5042041;28;20027;-67
2022/02/16 07:18:58;;;;;;;0.20;0.10;;;;;;;;;;5040929;28;20040;-67
2022/02/16 07:21:24;;;;;;;0.10;0.10;;;;;;;;;;5032734;28;20033;-67
2022/02/16 07:23:49;;;;;;;2.13;0.15;;;;;;;;;;5019936;28;20045;-67
2022/02/16 07:26:15;;;;;;;0.63;0.10;;;;;;;;;;5034471;28;20494;-66
2022/02/16 07:28:40;;;;;;;1.10;0.30;;;;;;;;;;5050175;28;20025;-67
2022/02/16 07:31:06;;;;;;;0.17;0.10;;;;;;;;;;5037779;28;20028;-67
2022/02/16 07:33:31;;;;;;;0.95;0.20;;;;;;;;;;5030765;28;20030;-67
2022/02/16 07:35:56;;;;;;;0.35;0.10;;;;;;;;;;5029949;28;20087;-68
2022/02/16 07:38:21;;;;;;;0.20;0.10;;;;;;;;;;5023079;28;20020;-67
2022/02/16 07:40:46;;;;;;;0.93;0.10;;;;;;;;;;5028424;28;20026;-67
2022/02/16 07:43:12;;;;;;;0.88;0.10;;;;;;;;;;5028739;28;20041;-67
2022/02/16 07:45:37;;;;;;;0.20;0.10;;;;;;;;;;5009681;28;20025;-67
2022/02/16 07:48:02;;;;;;;0.68;0.22;;;;;;;;;;5029103;28;20116;-67
2022/02/16 07:50:28;;;;;;;0.25;0.10;;;;;;;;;;5030768;28;20025;-66
2022/02/16 07:52:54;;;;;;;0.20;0.10;;;;;;;;;;5021534;28;20049;-68
2022/02/16 07:55:20;;;;;;;0.20;0.10;;;;;;;;;;5030627;28;20131;-67
2022/02/16 07:57:45;;;;;;;0.30;0.10;;;;;;;;;;5025394;28;20128;-68
2022/02/16 08:00:10;;;;;;;0.32;0.10;;;;;;;;;;5022979;28;20056;-68
2022/02/16 08:02:36;;;;;;;0.30;0.10;;;;;;;;;;5024345;28;20039;-67
2022/02/16 08:05:02;;;;;;;1.15;0.20;;;;;;;;;;5037339;28;20025;-67
2022/02/16 08:07:29;;;;;;;0.25;0.10;;;;;;;;;;5021516;28;20022;-68
2022/02/16 08:09:54;;;;;;;0.13;0.00;;;;;;;;;;5025739;28;20108;-67
2022/02/16 08:12:19;;;;;;;0.38;0.10;;;;;;;;;;5024740;28;20124;-68
2022/02/16 08:14:44;;;;;;;0.13;0.10;;;;;;;;;;5024730;28;20394;-67
2022/02/16 08:17:10;;;;;;;0.50;0.10;;;;;;;;;;5028204;28;20032;-67
2022/02/16 08:19:35;;;;;;;0.88;0.50;;;;;;;;;;5028867;28;20057;-68
2022/02/16 08:22:00;;;;;;;0.73;0.10;;;;;;;;;;5025447;28;21208;-67
2022/02/16 08:24:26;;;;;;;0.10;0.05;;;;;;;;;;5022604;28;20030;-68
2022/02/16 08:26:51;;;;;;;0.30;0.10;;;;;;;;;;5030139;28;20028;-59
2022/02/16 08:29:17;;;;;;;0.10;0.08;;;;;;;;;;5027592;28;20030;-59
2022/02/16 08:31:42;;;;;;;0.28;0.00;;;;;;;;;;5030492;28;20109;-68
2022/02/16 08:34:08;;;;;;;0.03;0.03;;;;;;;;;;5033037;28;20025;-68
2022/02/16 08:36:33;;;;;;;0.10;0.10;;;;;;;;;;5020399;28;20076;-68
2022/02/16 08:38:58;;;;;;;0.20;0.10;;;;;;;;;;5028908;28;20644;-67
2022/02/16 08:41:23;;;;;;;0.10;0.10;;;;;;;;;;5047351;28;20027;-68
2022/02/16 08:43:49;;;;;;;0.10;0.08;;;;;;;;;;5023434;28;20060;-67
2022/02/16 08:46:14;;;;;;;0.15;0.00;;;;;;;;;;5029136;28;20040;-67
2022/02/16 08:48:39;;;;;;;0.55;0.05;;;;;;;;;;5031661;28;20027;-67
2022/02/16 08:51:05;;;;;;;0.47;0.10;;;;;;;;;;5025307;28;20028;-67
2022/02/16 08:53:30;;;;;;;0.50;0.10;;;;;;;;;;5017923;28;20029;-66
2022/02/16 08:55:55;;;;;;;0.20;0.10;;;;;;;;;;5025457;28;20049;-67
2022/02/16 08:58:21;;;;;;;0.65;0.10;;;;;;;;;;5032839;28;20075;-67
2022/02/16 09:00:47;;;;;;;0.30;0.00;;;;;;;;;;5035481;28;20086;-68
2022/02/16 09:03:13;;;;;;;0.35;0.10;;;;;;;;;;5027054;28;20374;-68
2022/02/16 09:05:38;;;;;;;0.93;0.20;;;;;;;;;;5016700;28;20044;-67
2022/02/16 09:08:03;;;;;;;0.15;0.10;;;;;;;;;;5030726;28;20519;-67
2022/02/16 09:10:28;;;;;;;0.10;0.03;;;;;;;;;;5025299;28;20033;-67
2022/02/16 09:12:54;;;;;;;0.10;0.10;;;;;;;;;;5022092;28;20021;-68
2022/02/16 09:15:21;;;;;;;1.27;0.10;;;;;;;;;;5030110;28;20022;-67
2022/02/16 09:17:47;;;;;;;0.20;0.10;;;;;;;;;;5039515;28;20398;-67
2022/02/16 09:20:12;;;;;;;0.10;0.00;;;;;;;;;;5029211;28;20033;-68
2022/02/16 09:22:38;;;;;;;1.05;0.03;;;;;;;;;;5024252;28;20451;-67
2022/02/16 09:25:04;;;;;;;0.05;0.05;;;;;;;;;;5027915;28;20056;-67
2022/02/16 09:27:29;;;;;;;1.70;0.10;;;;;;;;;;5026585;28;20466;-66
2022/02/16 09:29:55;;;;;;;0.15;0.10;;;;;;;;;;5030069;28;20039;-67
2022/02/16 09:32:21;;;;;;;0.10;0.08;;;;;;;;;;5022882;28;20030;-67
2022/02/16 09:34:47;;;;;;;0.00;0.00;;;;;;;;;;5034157;28;20068;-66
2022/02/16 09:37:12;;;;;;;0.20;0.00;;;;;;;;;;5028584;28;20030;-68
2022/02/16 09:39:38;;;;;;;1.40;0.00;;;;;;;;;;5023595;28;20032;-65
2022/02/16 09:42:03;;;;;;;0.82;0.00;;;;;;;;;;5019917;28;20030;-67
2022/02/16 09:44:48;;;;;;;0.00;0.00;;;;;;;;;;5028259;28;20040;-67
2022/02/16 09:47:13;;;;;;;0.10;0.00;;;;;;;;;;5032617;28;20033;-67
2022/02/16 09:49:39;;;;;;;0.28;0.00;;;;;;;;;;5040950;28;20483;-66
2022/02/16 09:52:05;;;;;;;1.33;0.00;;;;;;;;;;5018494;28;20080;-67
2022/02/16 09:54:30;;;;;;;0.82;0.00;;;;;;;;;;5037073;28;20129;-67
2022/02/16 09:56:56;;;;;;;0.30;0.00;;;;;;;;;;5044845;28;20112;-67
2022/02/16 09:59:21;;;;;;;0.10;0.00;;;;;;;;;;5032553;28;20413;-66
2022/02/16 10:01:58;;;;;;;0.20;0.00;;;;;;;;;;5019614;28;20386;-66
2022/02/16 10:04:24;;;;;;;0.38;0.00;;;;;;;;;;5027206;28;20022;-66
2022/02/16 10:06:49;;;;;;;0.20;0.05;;;;;;;;;;5034243;28;20029;-66
2022/02/16 10:09:23;;;;;;;0.10;0.00;;;;;;;;;;5027843;28;20021;-67
2022/02/16 10:11:54;;;;;;;0.70;0.00;;;;;;;;;;5017958;28;20026;-66
2022/02/16 10:14:21;;;;;;;0.05;0.00;;;;;;;;;;5033632;28;20048;-67
2022/02/16 10:16:46;;;;;;;0.85;0.00;;;;;;;;;;5030208;28;20053;-67
2022/02/16 10:19:12;;;;;;;0.32;0.08;;;;;;;;;;5013536;28;20064;-67
2022/02/16 10:21:37;;;;;;;0.20;0.00;;;;;;;;;;5024040;28;20088;-67
2022/02/16 10:24:02;;;;;;;1.70;0.00;;;;;;;;;;5018496;28;20053;-67
2022/02/16 10:26:47;;;;;;;0.95;0.10;;;;;;;;;;5028352;28;20081;-67
2022/02/16 10:29:27;;;;;;;0.20;0.00;;;;;;;;;;5025906;28;20021;-67
2022/02/16 10:31:52;;;;;;;0.20;0.00;;;;;;;;;;5038675;28;20025;-67
2022/02/16 10:34:17;;;;;;;0.10;0.00;;;;;;;;;;5023714;28;20021;-67
2022/02/16 10:36:46;;;;;;;0.10;0.00;;;;;;;;;;5032327;28;20140;-67
2022/02/16 10:39:14;;;;;;;0.00;0.00;;;;;;;;;;5027637;28;20018;-68
2022/02/16 10:41:39;;;;;;;0.00;0.00;;;;;;;;;;5013363;28;20100;-68
2022/02/16 10:44:14;;;;;;;0.10;0.00;;;;;;;;;;5017301;28;20108;-67
2022/02/16 10:46:39;;;;;;;0.00;0.00;;;;;;;;;;5013092;28;20064;-67
2022/02/16 10:49:09;;;;;;;0.17;0.00;;;;;;;;;;5023288;28;20057;-68
2022/02/16 10:51:34;;;;;;;0.10;0.00;;;;;;;;;;5027984;28;20423;-68
2022/02/16 10:54:13;;;;;;;0.32;0.32;;;;;;;;;;5021132;28;20079;-67
2022/02/16 10:56:41;;;;;;;0.10;0.00;;;;;;;;;;5026346;28;20540;-66
2022/02/16 10:59:07;;;;;;;0.10;0.00;;;;;;;;;;5031114;28;20087;-68
2022/02/16 11:01:33;;;;;;;0.30;0.00;;;;;;;;;;5023008;28;20490;-67
2022/02/16 11:04:00;;;;;;;0.65;0.00;;;;;;;;;;5018804;28;20026;-67
2022/02/16 11:06:25;;;;;;;0.20;0.00;;;;;;;;;;5044976;28;20068;-67
2022/02/16 11:08:53;;;;;;;0.30;0.10;;;;;;;;;;5050998;28;20056;-67
2022/02/16 11:11:18;;;;;;;0.20;0.10;;;;;;;;;;5029706;28;20025;-66
2022/02/16 11:13:43;;;;;;;1.55;0.10;;;;;;;;;;5012597;28;20022;-67
2022/02/16 11:16:09;;;;;;;1.45;0.25;;;;;;;;;;5021814;28;20474;-68
2022/02/16 11:18:48;;;;;;;14.32;0.80;;;;;;;;;;5017843;28;20052;-68
2022/02/16 11:21:17;;;;;;;1.40;0.32;;;;;;;;;;5019476;28;20043;-67
2022/02/16 11:23:45;;;;;;;1.85;0.40;;;;;;;;;;5010375;28;20505;-66
2022/02/16 11:26:22;;;;;;;2.50;0.40;;;;;;;;;;5022064;28;20034;-67
2022/02/16 11:28:47;;;;;;;0.50;0.20;;;;;;;;;;5044514;28;20017;-66
2022/02/16 11:31:29;;;;;;;0.40;0.40;;;;;;;;;;5026219;28;20025;-67
2022/02/16 11:34:14;;;;;;;0.63;0.20;;;;;;;;;;5030066;28;20474;-67
2022/02/16 11:36:46;;;;;;;1.58;0.20;;;;;;;;;;5016987;28;20084;-67
2022/02/16 11:39:11;;;;;;;0.43;0.03;;;;;;;;;;5032241;28;20092;-66
2022/02/16 11:41:53;;;;;;;0.82;0.10;;;;;;;;;;5019986;28;20065;-67
2022/02/16 11:44:18;;;;;;;0.10;0.00;;;;;;;;;;5024612;28;20171;-67
2022/02/16 11:46:47;;;;;;;0.10;0.10;;;;;;;;;;5032465;28;20108;-67
2022/02/16 11:49:33;;;;;;;0.77;0.00;;;;;;;;;;5034449;28;20078;-67
2022/02/16 11:51:58;;;;;;;0.10;0.03;;;;;;;;;;5023493;28;20504;-67
2022/02/16 11:54:43;;;;;;;0.13;0.00;;;;;;;;;;5030527;28;20025;-67
2022/02/16 11:57:27;;;;;;;0.20;0.10;;;;;;;;;;5031318;28;20132;-67
2022/02/16 11:59:55;;;;;;;0.47;0.00;;;;;;;;;;5029077;28;20033;-67
2022/02/16 12:02:21;;;;;;;0.03;0.00;;;;;;;;;;5027742;28;20018;-66
2022/02/16 12:04:54;;;;;;;0.10;0.00;;;;;;;;;;5043252;28;20090;-66
2022/02/16 12:07:27;;;;;;;0.38;0.00;;;;;;;;;;5032015;28;20025;-67
2022/02/16 12:10:22;;;;;;;0.25;0.10;;;;;;;;;;5029879;28;20022;-68
2022/02/16 12:12:48;;;;;;;0.10;0.00;;;;;;;;;;5015495;28;20096;-68
2022/02/16 12:15:16;;;;;;;0.20;0.00;;;;;;;;;;5018398;28;20490;-67
2022/02/16 12:17:41;;;;;;;0.22;0.05;;;;;;;;;;5026177;28;20033;-67
2022/02/16 12:20:07;;;;;;;0.20;0.10;;;;;;;;;;5016513;28;20084;-67
2022/02/16 12:22:33;;;;;;;0.22;0.03;;;;;;;;;;5013457;28;20252;-67
2022/02/16 12:25:27;;;;;;;0.40;0.10;;;;;;;;;;5025841;28;20061;-66
2022/02/16 12:27:58;;;;;;;0.20;0.10;;;;;;;;;;5011326;28;20533;-67
2022/02/16 12:30:31;;;;;;;0.40;0.10;;;;;;;;;;5036267;28;20025;-67
2022/02/16 12:32:56;;;;;;;0.68;0.10;;;;;;;;;;5011580;28;20025;-67
2022/02/16 12:35:22;;;;;;;0.52;0.10;;;;;;;;;;5031657;28;20029;-67
2022/02/16 12:37:47;;;;;;;0.63;0.10;;;;;;;;;;5017347;28;20044;-66
2022/02/16 12:40:13;;;;;;;0.20;0.08;;;;;;;;;;5041225;28;20053;-66
2022/02/16 12:42:44;;;;;;;1.15;0.05;;;;;;;;;;5013087;28;20390;-66
2022/02/16 12:45:09;;;;;;;1.50;0.10;;;;;;;;;;5027569;28;20055;-67
2022/02/16 12:47:35;;;;;;;0.17;0.10;;;;;;;;;;5011618;28;20041;-68
2022/02/16 12:50:10;;;;;;;0.35;0.10;;;;;;;;;;5020674;28;20022;-67
2022/02/16 12:52:35;;;;;;;;;;;;;;;;;;5016221;28;20048;-66
2022/02/16 12:55:04;;;;;;;0.45;0.10;;;;;;;;;;5020377;28;20321;-67
2022/02/16 12:57:30;;;;;;;0.40;0.10;;;;;;;;;;5027088;28;20490;-67
2022/02/16 13:02:43;;;;;;;0.10;0.00;;;;;;;;;;5032492;28;20115;-66
2022/02/16 13:05:08;;;;;;;0.38;0.00;;;;;;;;;;5027565;28;20120;-67
2022/02/16 13:07:34;;;;;;;0.20;0.00;;;;;;;;;;5025846;28;20288;-67
2022/02/16 13:10:01;;;;;;;0.82;0.05;;;;;;;;;;5016662;28;20050;-67
2022/02/16 13:12:32;;;;;;;0.30;0.00;;;;;;;;;;5034746;28;20021;-67
2022/02/16 13:15:03;;;;;;;0.10;0.00;;;;;;;;;;5028114;28;20558;-66
2022/02/16 13:17:29;;;;;;;0.10;0.00;;;;;;;;;;5024902;28;20114;-67
2022/02/16 13:19:54;;;;;;;0.00;0.00;;;;;;;;;;5028001;28;20487;-66
2022/02/16 13:22:21;;;;;;;0.82;0.00;;;;;;;;;;5023574;28;20025;-66
2022/02/16 13:24:50;;;;;;;0.20;0.00;;;;;;;;;;5023750;28;20493;-66
2022/02/16 13:27:15;;;;;;;0.10;0.00;;;;;;;;;;5032477;28;20172;-67
2022/02/16 13:29:40;;;;;;;0.00;0.00;;;;;;;;;;5030166;28;20120;-66
2022/02/16 13:32:06;;;;;;;0.10;0.00;;;;;;;;;;5024359;28;20030;-67
2022/02/16 13:34:48;;;;;;;0.00;0.00;;;;;;;;;;5038128;28;20026;-66
2022/02/16 13:37:13;;;;;;;0.30;0.10;;;;;;;;;;5028884;28;20096;-68
2022/02/16 13:39:38;;;;;;;0.10;0.00;;;;;;;;;;5032994;28;20116;-65
2022/02/16 13:42:04;;;;;;;0.10;0.00;;;;;;;;;;5021727;28;20037;-67
2022/02/16 13:44:33;;;;;;;0.00;0.00;;;;;;;;;;5018824;28;20038;-66
2022/02/16 13:47:00;;;;;;;0.10;0.00;;;;;;;;;;5019708;28;20108;-67
2022/02/16 13:49:26;;;;;;;0.20;0.00;;;;;;;;;;5030822;28;20027;-67
2022/02/16 13:52:02;;;;;;;0.00;0.00;;;;;;;;;;5022379;28;20382;-67
2022/02/16 13:54:30;;;;;;;0.10;0.00;;;;;;;;;;5019308;28;20478;-67
2022/02/16 13:56:59;;;;;;;0.10;0.00;;;;;;;;;;5031112;28;20036;-67
2022/02/16 13:59:25;;;;;;;0.10;0.00;;;;;;;;;;5025289;28;20227;-66
2022/02/16 14:02:06;;;;;;;0.10;0.10;;;;;;;;;;5031213;28;20029;-65
2022/02/16 14:04:35;;;;;;;0.00;0.00;;;;;;;;;;5027740;28;20024;-66
2022/02/16 14:07:02;;;;;;;0.57;0.00;;;;;;;;;;5032613;28;20187;-66
2022/02/16 14:09:27;;;;;;;0.00;0.00;;;;;;;;;;5018278;28;20018;-67
2022/02/16 14:11:52;;;;;;;0.10;0.00;;;;;;;;;;5032168;28;20020;-66
2022/02/16 14:14:18;;;;;;;0.15;0.00;;;;;;;;;;5030824;28;20111;-65
2022/02/16 14:16:43;;;;;;;0.03;0.00;;;;;;;;;;5020023;28;20030;-66
2022/02/16 14:19:23;;;;;;;0.13;0.00;;;;;;;;;;5026448;28;20100;-66
2022/02/16 14:21:49;;;;;;;0.00;0.00;;;;;;;;;;5020945;28;20017;-66
2022/02/16 14:24:14;;;;;;;0.10;0.00;;;;;;;;;;5016430;28;20033;-65
2022/02/16 14:26:40;;;;;;;0.00;0.00;;;;;;;;;;5018067;28;20026;-66
2022/02/16 14:29:05;;;;;;;0.10;0.00;;;;;;;;;;5035995;28;20443;-65
2022/02/16 14:31:31;;;;;;;0.40;0.00;;;;;;;;;;5036760;28;20047;-65
2022/02/16 14:33:56;;;;;;;0.00;0.00;;;;;;;;;;5020727;28;20026;-65
2022/02/16 14:36:21;;;;;;;0.22;0.00;;;;;;;;;;5024390;28;20113;-66
2022/02/16 14:38:46;;;;;;;0.10;0.00;;;;;;;;;;5013774;28;20108;-65
2022/02/16 14:41:11;;;;;;;0.47;0.00;;;;;;;;;;5032480;28;20036;-65